sensor_id;sensor_type;location;lat;lon;timestamp;temperature;humidity
14357;DHT22;7262;48.764;9.166;2024-02-21T00:01:43;6.30;99.90
14357;DHT22;7262;48.764;9.166;2024-02-21T00:04:11;6.30;99.90
14357;DHT22;7262;48.764;9.166;2024-02-21T00:06:38;6.30;99.90
14357;DHT22;7262;48.764;9.166;2024-02-21T00:09:05;6.30;99.90
14357;DHT22;7262;48.764;9.166;2024-02-21T00:11:32;6.10;99.90
14357;DHT22;7262;48.764;9.166;2024-02-21T00:13:58;6.30;99.90
14357;DHT22;7262;48.764;9.166;2024-02-21T00:16:25;6.30;99.90
14357;DHT22;7262;48.764;9.166;2024-02-21T00:18:52;6.30;99.90
14357;DHT22;7262;48.764;9.166;2024-02-21T00:21:20;6.30;99.90
14357;DHT22;7262;48.764;9.166;2024-02-21T00:23:47;6.30;99.90
14357;DHT22;7262;48.764;9.166;2024-02-21T00:26:15;6.30;99.90
14357;DHT22;7262;48.764;9.166;2024-02-21T00:28:42;6.30;99.90
14357;DHT22;7262;48.764;9.166;2024-02-21T00:31:10;6.30;99.90
14357;DHT22;7262;48.764;9.166;2024-02-21T00:33:37;6.30;99.90
14357;DHT22;7262;48.764;9.166;2024-02-21T00:36:04;6.30;99.90
14357;DHT22;7262;48.764;9.166;2024-02-21T00:38:34;6.40;99.90
14357;DHT22;7262;48.764;9.166;2024-02-21T00:41:02;6.40;99.90
14357;DHT22;7262;48.764;9.166;2024-02-21T00:43:28;6.40;99.90
14357;DHT22;7262;48.764;9.166;2024-02-21T00:45:55;6.40;99.90
14357;DHT22;7262;48.764;9.166;2024-02-21T00:48:23;6.40;99.90
14357;DHT22;7262;48.764;9.166;2024-02-21T00:50:49;6.40;99.90
14357;DHT22;7262;48.764;9.166;2024-02-21T00:53:17;6.40;99.90
14357;DHT22;7262;48.764;9.166;2024-02-21T00:55:46;6.40;99.90
14357;DHT22;7262;48.764;9.166;2024-02-21T00:58:13;6.40;99.90
14357;DHT22;7262;48.764;9.166;2024-02-21T01:00:40;6.40;99.90
14357;DHT22;7262;48.764;9.166;2024-02-21T01:03:07;6.40;99.90
14357;DHT22;7262;48.764;9.166;2024-02-21T01:05:34;6.40;99.90
14357;DHT22;7262;48.764;9.166;2024-02-21T01:08:00;6.40;99.90
14357;DHT22;7262;48.764;9.166;2024-02-21T01:10:27;6.50;99.90
14357;DHT22;7262;48.764;9.166;2024-02-21T01:12:56;6.50;99.90
14357;DHT22;7262;48.764;9.166;2024-02-21T01:15:23;6.50;99.90
14357;DHT22;7262;48.764;9.166;2024-02-21T01:17:50;6.60;99.90
14357;DHT22;7262;48.764;9.166;2024-02-21T01:20:20;6.60;99.90
14357;DHT22;7262;48.764;9.166;2024-02-21T01:22:47;6.60;99.90
14357;DHT22;7262;48.764;9.166;2024-02-21T01:25:14;6.70;99.90
14357;DHT22;7262;48.764;9.166;2024-02-21T01:27:41;6.70;99.90
14357;DHT22;7262;48.764;9.166;2024-02-21T01:30:10;6.70;99.90
14357;DHT22;7262;48.764;9.166;2024-02-21T01:32:37;6.70;99.90
14357;DHT22;7262;48.764;9.166;2024-02-21T01:35:04;6.80;99.90
14357;DHT22;7262;48.764;9.166;2024-02-21T01:37:31;6.80;99.90
14357;DHT22;7262;48.764;9.166;2024-02-21T01:39:58;6.80;99.90
14357;DHT22;7262;48.764;9.166;2024-02-21T01:42:25;6.90;99.90
14357;DHT22;7262;48.764;9.166;2024-02-21T01:44:51;6.90;99.90
14357;DHT22;7262;48.764;9.166;2024-02-21T01:47:20;6.90;99.90
14357;DHT22;7262;48.764;9.166;2024-02-21T01:49:47;6.90;99.90
14357;DHT22;7262;48.764;9.166;2024-02-21T01:52:14;6.90;99.90
14357;DHT22;7262;48.764;9.166;2024-02-21T01:54:42;6.80;99.90
14357;DHT22;7262;48.764;9.166;2024-02-21T01:57:10;6.80;99.90
14357;DHT22;7262;48.764;9.166;2024-02-21T01:59:37;6.90;99.90
14357;DHT22;7262;48.764;9.166;2024-02-21T02:02:04;6.90;99.90
14357;DHT22;7262;48.764;9.166;2024-02-21T02:04:33;6.90;99.90
14357;DHT22;7262;48.764;9.166;2024-02-21T02:07:01;7.00;99.90
14357;DHT22;7262;48.764;9.166;2024-02-21T02:09:29;6.90;99.90
14357;DHT22;7262;48.764;9.166;2024-02-21T02:11:55;6.90;99.90
14357;DHT22;7262;48.764;9.166;2024-02-21T02:14:23;7.00;99.90
14357;DHT22;7262;48.764;9.166;2024-02-21T02:16:50;6.90;99.90
14357;DHT22;7262;48.764;9.166;2024-02-21T02:19:17;7.00;99.90
14357;DHT22;7262;48.764;9.166;2024-02-21T02:21:46;7.00;99.90
14357;DHT22;7262;48.764;9.166;2024-02-21T02:24:20;7.00;99.90
14357;DHT22;7262;48.764;9.166;2024-02-21T02:26:47;7.00;99.90
14357;DHT22;7262;48.764;9.166;2024-02-21T02:29:14;7.00;99.90
14357;DHT22;7262;48.764;9.166;2024-02-21T02:31:42;7.00;99.90
14357;DHT22;7262;48.764;9.166;2024-02-21T02:34:09;7.00;99.90
14357;DHT22;7262;48.764;9.166;2024-02-21T02:36:35;7.00;99.90
14357;DHT22;7262;48.764;9.166;2024-02-21T02:39:02;7.00;99.90
14357;DHT22;7262;48.764;9.166;2024-02-21T02:41:30;7.00;99.90
14357;DHT22;7262;48.764;9.166;2024-02-21T02:43:57;7.10;99.90
14357;DHT22;7262;48.764;9.166;2024-02-21T02:46:24;7.10;99.90
14357;DHT22;7262;48.764;9.166;2024-02-21T02:48:51;7.10;99.90
14357;DHT22;7262;48.764;9.166;2024-02-21T02:51:18;7.20;99.90
14357;DHT22;7262;48.764;9.166;2024-02-21T02:53:44;7.10;99.90
14357;DHT22;7262;48.764;9.166;2024-02-21T02:56:14;7.20;99.90
14357;DHT22;7262;48.764;9.166;2024-02-21T02:58:42;7.20;99.90
14357;DHT22;7262;48.764;9.166;2024-02-21T03:01:09;7.20;99.90
14357;DHT22;7262;48.764;9.166;2024-02-21T03:03:36;7.20;99.90
14357;DHT22;7262;48.764;9.166;2024-02-21T03:06:04;7.20;99.90
14357;DHT22;7262;48.764;9.166;2024-02-21T03:08:32;7.20;99.90
14357;DHT22;7262;48.764;9.166;2024-02-21T03:10:59;7.30;99.90
14357;DHT22;7262;48.764;9.166;2024-02-21T03:13:26;7.10;99.90
14357;DHT22;7262;48.764;9.166;2024-02-21T03:15:54;7.00;99.90
14357;DHT22;7262;48.764;9.166;2024-02-21T03:18:21;6.90;99.90
14357;DHT22;7262;48.764;9.166;2024-02-21T03:20:48;6.90;99.90
14357;DHT22;7262;48.764;9.166;2024-02-21T03:23:15;6.90;99.90
14357;DHT22;7262;48.764;9.166;2024-02-21T03:25:42;6.90;99.90
14357;DHT22;7262;48.764;9.166;2024-02-21T03:28:08;6.90;99.90
14357;DHT22;7262;48.764;9.166;2024-02-21T03:30:35;6.90;99.90
14357;DHT22;7262;48.764;9.166;2024-02-21T03:33:03;6.90;99.90
14357;DHT22;7262;48.764;9.166;2024-02-21T03:35:30;6.90;99.90
14357;DHT22;7262;48.764;9.166;2024-02-21T03:37:57;6.90;99.90
14357;DHT22;7262;48.764;9.166;2024-02-21T03:40:24;6.80;99.90
14357;DHT22;7262;48.764;9.166;2024-02-21T03:42:51;6.90;99.90
14357;DHT22;7262;48.764;9.166;2024-02-21T03:45:18;6.80;99.90
14357;DHT22;7262;48.764;9.166;2024-02-21T03:47:44;6.80;99.90
14357;DHT22;7262;48.764;9.166;2024-02-21T03:50:13;6.90;99.90
14357;DHT22;7262;48.764;9.166;2024-02-21T03:52:40;6.90;99.90
14357;DHT22;7262;48.764;9.166;2024-02-21T03:55:08;6.90;99.90
14357;DHT22;7262;48.764;9.166;2024-02-21T03:57:35;6.90;99.90
14357;DHT22;7262;48.764;9.166;2024-02-21T04:00:02;6.80;99.90
14357;DHT22;7262;48.764;9.166;2024-02-21T04:02:29;6.80;99.90
14357;DHT22;7262;48.764;9.166;2024-02-21T04:04:56;6.80;99.90
14357;DHT22;7262;48.764;9.166;2024-02-21T04:07:24;6.70;99.90
14357;DHT22;7262;48.764;9.166;2024-02-21T04:09:51;6.70;99.90
14357;DHT22;7262;48.764;9.166;2024-02-21T04:12:18;6.60;99.90
14357;DHT22;7262;48.764;9.166;2024-02-21T04:14:44;6.60;99.90
14357;DHT22;7262;48.764;9.166;2024-02-21T04:17:11;6.60;99.90
14357;DHT22;7262;48.764;9.166;2024-02-21T04:19:37;6.60;99.90
14357;DHT22;7262;48.764;9.166;2024-02-21T04:22:04;6.60;99.90
14357;DHT22;7262;48.764;9.166;2024-02-21T04:24:32;6.50;99.90
14357;DHT22;7262;48.764;9.166;2024-02-21T04:26:59;6.50;99.90
14357;DHT22;7262;48.764;9.166;2024-02-21T04:29:26;6.40;99.90
14357;DHT22;7262;48.764;9.166;2024-02-21T04:31:53;6.40;99.90
14357;DHT22;7262;48.764;9.166;2024-02-21T04:34:20;6.40;99.90
14357;DHT22;7262;48.764;9.166;2024-02-21T04:36:48;6.40;99.90
14357;DHT22;7262;48.764;9.166;2024-02-21T04:39:14;6.40;99.90
14357;DHT22;7262;48.764;9.166;2024-02-21T04:41:43;6.40;99.90
14357;DHT22;7262;48.764;9.166;2024-02-21T04:44:10;6.30;99.90
14357;DHT22;7262;48.764;9.166;2024-02-21T04:46:37;6.30;99.90
14357;DHT22;7262;48.764;9.166;2024-02-21T04:49:03;6.30;99.90
14357;DHT22;7262;48.764;9.166;2024-02-21T04:51:30;6.30;99.90
14357;DHT22;7262;48.764;9.166;2024-02-21T04:53:57;6.40;99.90
14357;DHT22;7262;48.764;9.166;2024-02-21T04:56:24;6.50;99.90
14357;DHT22;7262;48.764;9.166;2024-02-21T04:58:52;6.50;99.90
14357;DHT22;7262;48.764;9.166;2024-02-21T05:01:19;6.30;99.90
14357;DHT22;7262;48.764;9.166;2024-02-21T05:03:46;6.20;99.90
14357;DHT22;7262;48.764;9.166;2024-02-21T05:06:13;6.20;99.90
14357;DHT22;7262;48.764;9.166;2024-02-21T05:08:39;6.20;99.90
14357;DHT22;7262;48.764;9.166;2024-02-21T05:11:06;6.10;99.90
14357;DHT22;7262;48.764;9.166;2024-02-21T05:13:33;6.00;99.90
14357;DHT22;7262;48.764;9.166;2024-02-21T05:16:02;6.00;99.90
14357;DHT22;7262;48.764;9.166;2024-02-21T05:18:28;6.00;99.90
14357;DHT22;7262;48.764;9.166;2024-02-21T05:20:55;5.80;99.90
14357;DHT22;7262;48.764;9.166;2024-02-21T05:23:22;5.80;99.90
14357;DHT22;7262;48.764;9.166;2024-02-21T05:25:49;5.80;99.90
14357;DHT22;7262;48.764;9.166;2024-02-21T05:28:16;5.80;99.90
14357;DHT22;7262;48.764;9.166;2024-02-21T05:30:42;5.70;99.90
14357;DHT22;7262;48.764;9.166;2024-02-21T05:33:11;5.80;99.90
14357;DHT22;7262;48.764;9.166;2024-02-21T05:35:38;5.90;99.90
14357;DHT22;7262;48.764;9.166;2024-02-21T06:10:18;5.90;99.90
14357;DHT22;7262;48.764;9.166;2024-02-21T06:46:27;5.60;99.90
14357;DHT22;7262;48.764;9.166;2024-02-21T06:51:30;5.70;99.90
14357;DHT22;7262;48.764;9.166;2024-02-21T07:23:25;6.30;99.90
14357;DHT22;7262;48.764;9.166;2024-02-21T07:25:52;6.50;99.90
14357;DHT22;7262;48.764;9.166;2024-02-21T07:28:19;6.40;99.90
14357;DHT22;7262;48.764;9.166;2024-02-21T07:30:45;6.50;99.90
14357;DHT22;7262;48.764;9.166;2024-02-21T07:33:12;6.60;99.90
14357;DHT22;7262;48.764;9.166;2024-02-21T07:35:39;6.70;99.90
14357;DHT22;7262;48.764;9.166;2024-02-21T07:38:07;6.90;99.90
14357;DHT22;7262;48.764;9.166;2024-02-21T07:40:39;7.10;99.90
14357;DHT22;7262;48.764;9.166;2024-02-21T07:43:05;7.20;99.90
14357;DHT22;7262;48.764;9.166;2024-02-21T07:45:32;7.50;99.90
14357;DHT22;7262;48.764;9.166;2024-02-21T07:47:59;7.60;99.90
14357;DHT22;7262;48.764;9.166;2024-02-21T07:50:26;7.80;99.90
14357;DHT22;7262;48.764;9.166;2024-02-21T07:52:53;7.90;99.90
14357;DHT22;7262;48.764;9.166;2024-02-21T07:55:20;8.00;99.90
14357;DHT22;7262;48.764;9.166;2024-02-21T07:57:48;8.00;99.90
14357;DHT22;7262;48.764;9.166;2024-02-21T08:00:16;8.00;99.90
14357;DHT22;7262;48.764;9.166;2024-02-21T08:02:45;8.10;99.90
14357;DHT22;7262;48.764;9.166;2024-02-21T08:05:12;8.30;99.90
14357;DHT22;7262;48.764;9.166;2024-02-21T08:07:38;8.30;99.90
14357;DHT22;7262;48.764;9.166;2024-02-21T08:10:06;8.40;99.90
14357;DHT22;7262;48.764;9.166;2024-02-21T08:12:33;8.50;99.90
14357;DHT22;7262;48.764;9.166;2024-02-21T08:15:02;8.60;99.90
14357;DHT22;7262;48.764;9.166;2024-02-21T08:17:30;8.70;99.90
14357;DHT22;7262;48.764;9.166;2024-02-21T08:19:57;8.90;99.90
14357;DHT22;7262;48.764;9.166;2024-02-21T08:22:23;9.10;99.90
14357;DHT22;7262;48.764;9.166;2024-02-21T08:24:50;9.20;99.90
14357;DHT22;7262;48.764;9.166;2024-02-21T08:27:17;9.40;99.90
14357;DHT22;7262;48.764;9.166;2024-02-21T08:29:44;9.50;99.90
14357;DHT22;7262;48.764;9.166;2024-02-21T08:32:14;9.70;99.90
14357;DHT22;7262;48.764;9.166;2024-02-21T08:34:41;9.80;99.90
14357;DHT22;7262;48.764;9.166;2024-02-21T08:39:43;10.00;99.90
14357;DHT22;7262;48.764;9.166;2024-02-21T08:42:10;10.00;99.90
14357;DHT22;7262;48.764;9.166;2024-02-21T08:44:36;9.70;99.90
14357;DHT22;7262;48.764;9.166;2024-02-21T08:47:06;9.80;99.90
14357;DHT22;7262;48.764;9.166;2024-02-21T08:49:37;9.60;99.90
14357;DHT22;7262;48.764;9.166;2024-02-21T08:52:04;9.80;99.90
14357;DHT22;7262;48.764;9.166;2024-02-21T08:54:31;9.90;99.90
14357;DHT22;7262;48.764;9.166;2024-02-21T08:56:59;10.10;99.90
14357;DHT22;7262;48.764;9.166;2024-02-21T08:59:26;10.30;99.90
14357;DHT22;7262;48.764;9.166;2024-02-21T09:01:53;10.30;99.90
14357;DHT22;7262;48.764;9.166;2024-02-21T09:04:20;10.50;99.90
14357;DHT22;7262;48.764;9.166;2024-02-21T09:06:48;10.40;99.90
14357;DHT22;7262;48.764;9.166;2024-02-21T09:09:18;10.30;99.90
14357;DHT22;7262;48.764;9.166;2024-02-21T09:11:45;10.50;99.90
14357;DHT22;7262;48.764;9.166;2024-02-21T09:14:12;10.50;99.90
14357;DHT22;7262;48.764;9.166;2024-02-21T09:16:38;10.60;99.90
14357;DHT22;7262;48.764;9.166;2024-02-21T09:19:06;10.90;99.90
14357;DHT22;7262;48.764;9.166;2024-02-21T09:21:36;10.80;99.90
14357;DHT22;7262;48.764;9.166;2024-02-21T09:24:05;10.70;99.90
14357;DHT22;7262;48.764;9.166;2024-02-21T09:26:32;10.90;99.90
14357;DHT22;7262;48.764;9.166;2024-02-21T09:28:59;10.80;99.90
14357;DHT22;7262;48.764;9.166;2024-02-21T09:31:26;10.80;99.90
14357;DHT22;7262;48.764;9.166;2024-02-21T09:33:53;11.00;99.90
14357;DHT22;7262;48.764;9.166;2024-02-21T09:36:21;11.00;99.90
14357;DHT22;7262;48.764;9.166;2024-02-21T09:38:48;11.00;99.90
14357;DHT22;7262;48.764;9.166;2024-02-21T09:41:16;11.20;99.90
14357;DHT22;7262;48.764;9.166;2024-02-21T09:43:44;11.40;99.90
14357;DHT22;7262;48.764;9.166;2024-02-21T09:46:13;11.70;99.90
14357;DHT22;7262;48.764;9.166;2024-02-21T09:48:46;12.00;99.90
14357;DHT22;7262;48.764;9.166;2024-02-21T09:51:18;11.70;99.90
14357;DHT22;7262;48.764;9.166;2024-02-21T09:53:45;11.80;99.90
14357;DHT22;7262;48.764;9.166;2024-02-21T09:56:13;11.90;99.90
14357;DHT22;7262;48.764;9.166;2024-02-21T09:58:41;12.10;99.90
14357;DHT22;7262;48.764;9.166;2024-02-21T10:01:08;12.00;99.90
14357;DHT22;7262;48.764;9.166;2024-02-21T10:03:35;12.10;99.90
14357;DHT22;7262;48.764;9.166;2024-02-21T10:06:01;12.20;99.90
14357;DHT22;7262;48.764;9.166;2024-02-21T10:08:28;12.30;99.90
14357;DHT22;7262;48.764;9.166;2024-02-21T10:10:55;12.10;99.90
14357;DHT22;7262;48.764;9.166;2024-02-21T10:13:26;12.10;99.90
14357;DHT22;7262;48.764;9.166;2024-02-21T10:16:05;12.30;99.90
14357;DHT22;7262;48.764;9.166;2024-02-21T10:18:32;12.20;99.90
14357;DHT22;7262;48.764;9.166;2024-02-21T10:21:00;12.50;99.90
14357;DHT22;7262;48.764;9.166;2024-02-21T10:23:26;12.90;99.90
14357;DHT22;7262;48.764;9.166;2024-02-21T10:25:53;13.60;99.90
14357;DHT22;7262;48.764;9.166;2024-02-21T10:28:20;13.80;99.90
14357;DHT22;7262;48.764;9.166;2024-02-21T10:30:50;14.40;99.90
14357;DHT22;7262;48.764;9.166;2024-02-21T10:33:18;14.60;99.90
14357;DHT22;7262;48.764;9.166;2024-02-21T10:35:46;13.90;99.90
14357;DHT22;7262;48.764;9.166;2024-02-21T10:38:15;13.70;99.90
14357;DHT22;7262;48.764;9.166;2024-02-21T10:40:42;13.90;99.90
14357;DHT22;7262;48.764;9.166;2024-02-21T10:43:11;14.20;99.90
14357;DHT22;7262;48.764;9.166;2024-02-21T10:45:38;14.00;99.90
14357;DHT22;7262;48.764;9.166;2024-02-21T10:48:08;13.60;99.90
14357;DHT22;7262;48.764;9.166;2024-02-21T10:50:40;13.50;99.90
14357;DHT22;7262;48.764;9.166;2024-02-21T10:53:14;13.80;99.90
14357;DHT22;7262;48.764;9.166;2024-02-21T10:55:46;13.90;99.90
14357;DHT22;7262;48.764;9.166;2024-02-21T10:58:17;13.70;99.90
14357;DHT22;7262;48.764;9.166;2024-02-21T11:00:45;13.60;99.90
14357;DHT22;7262;48.764;9.166;2024-02-21T11:03:13;13.70;99.90
14357;DHT22;7262;48.764;9.166;2024-02-21T11:05:49;13.50;99.90
14357;DHT22;7262;48.764;9.166;2024-02-21T11:08:16;13.60;99.90
14357;DHT22;7262;48.764;9.166;2024-02-21T11:10:47;13.80;99.90
14357;DHT22;7262;48.764;9.166;2024-02-21T11:13:30;13.90;99.90
14357;DHT22;7262;48.764;9.166;2024-02-21T11:16:05;14.30;99.90
14357;DHT22;7262;48.764;9.166;2024-02-21T11:18:33;14.40;99.90
14357;DHT22;7262;48.764;9.166;2024-02-21T11:21:01;14.60;99.90
14357;DHT22;7262;48.764;9.166;2024-02-21T11:23:28;15.00;99.90
14357;DHT22;7262;48.764;9.166;2024-02-21T11:26:03;14.70;99.90
14357;DHT22;7262;48.764;9.166;2024-02-21T11:28:30;14.70;99.90
14357;DHT22;7262;48.764;9.166;2024-02-21T11:31:06;14.40;99.90
14357;DHT22;7262;48.764;9.166;2024-02-21T11:33:33;14.20;99.90
14357;DHT22;7262;48.764;9.166;2024-02-21T11:36:02;14.40;99.90
14357;DHT22;7262;48.764;9.166;2024-02-21T11:38:30;14.60;99.90
14357;DHT22;7262;48.764;9.166;2024-02-21T11:40:56;14.70;99.90
14357;DHT22;7262;48.764;9.166;2024-02-21T11:43:24;14.30;99.90
14357;DHT22;7262;48.764;9.166;2024-02-21T11:45:51;14.40;99.90
14357;DHT22;7262;48.764;9.166;2024-02-21T11:48:25;14.50;99.90
14357;DHT22;7262;48.764;9.166;2024-02-21T11:50:52;14.80;99.90
14357;DHT22;7262;48.764;9.166;2024-02-21T11:53:25;14.80;99.90
14357;DHT22;7262;48.764;9.166;2024-02-21T11:55:56;14.90;99.90
14357;DHT22;7262;48.764;9.166;2024-02-21T11:58:22;15.00;99.90
14357;DHT22;7262;48.764;9.166;2024-02-21T12:00:50;14.90;99.90
14357;DHT22;7262;48.764;9.166;2024-02-21T12:03:16;14.60;99.90
14357;DHT22;7262;48.764;9.166;2024-02-21T12:05:45;14.40;99.90
14357;DHT22;7262;48.764;9.166;2024-02-21T12:08:14;14.40;99.90
14357;DHT22;7262;48.764;9.166;2024-02-21T12:10:47;14.10;99.90
14357;DHT22;7262;48.764;9.166;2024-02-21T12:13:16;14.20;99.90
14357;DHT22;7262;48.764;9.166;2024-02-21T12:15:47;14.40;99.90
14357;DHT22;7262;48.764;9.166;2024-02-21T12:18:15;14.60;99.90
14357;DHT22;7262;48.764;9.166;2024-02-21T12:20:42;14.90;99.90
14357;DHT22;7262;48.764;9.166;2024-02-21T12:23:12;15.20;99.90
14357;DHT22;7262;48.764;9.166;2024-02-21T12:25:39;15.20;99.90
14357;DHT22;7262;48.764;9.166;2024-02-21T12:28:09;15.20;99.90
14357;DHT22;7262;48.764;9.166;2024-02-21T12:30:36;15.00;99.90
14357;DHT22;7262;48.764;9.166;2024-02-21T12:33:05;14.60;99.90
14357;DHT22;7262;48.764;9.166;2024-02-21T12:35:32;14.70;99.90
14357;DHT22;7262;48.764;9.166;2024-02-21T12:38:00;14.60;99.90
14357;DHT22;7262;48.764;9.166;2024-02-21T12:40:27;14.60;99.90
14357;DHT22;7262;48.764;9.166;2024-02-21T12:42:58;14.30;99.90
14357;DHT22;7262;48.764;9.166;2024-02-21T12:45:29;14.50;99.90
14357;DHT22;7262;48.764;9.166;2024-02-21T12:47:56;14.70;99.90
14357;DHT22;7262;48.764;9.166;2024-02-21T12:50:23;14.90;99.90
14357;DHT22;7262;48.764;9.166;2024-02-21T12:52:52;14.90;99.90
14357;DHT22;7262;48.764;9.166;2024-02-21T12:55:20;15.20;99.90
14357;DHT22;7262;48.764;9.166;2024-02-21T12:57:48;15.10;99.90
14357;DHT22;7262;48.764;9.166;2024-02-21T13:00:16;15.20;99.90
14357;DHT22;7262;48.764;9.166;2024-02-21T13:02:44;15.50;99.90
14357;DHT22;7262;48.764;9.166;2024-02-21T13:05:11;15.30;99.90
14357;DHT22;7262;48.764;9.166;2024-02-21T13:07:38;15.10;99.90
14357;DHT22;7262;48.764;9.166;2024-02-21T13:10:06;15.30;99.90
14357;DHT22;7262;48.764;9.166;2024-02-21T13:12:33;15.50;99.90
14357;DHT22;7262;48.764;9.166;2024-02-21T13:15:01;15.30;99.90
14357;DHT22;7262;48.764;9.166;2024-02-21T13:17:27;15.00;99.90
14357;DHT22;7262;48.764;9.166;2024-02-21T13:19:59;14.80;99.90
14357;DHT22;7262;48.764;9.166;2024-02-21T13:22:26;14.70;99.90
14357;DHT22;7262;48.764;9.166;2024-02-21T13:24:53;14.80;99.90
14357;DHT22;7262;48.764;9.166;2024-02-21T13:27:20;15.10;99.90
14357;DHT22;7262;48.764;9.166;2024-02-21T13:29:47;14.70;99.90
14357;DHT22;7262;48.764;9.166;2024-02-21T13:32:14;14.50;99.90
14357;DHT22;7262;48.764;9.166;2024-02-21T13:34:42;14.50;99.90
14357;DHT22;7262;48.764;9.166;2024-02-21T13:37:11;14.70;99.90
14357;DHT22;7262;48.764;9.166;2024-02-21T13:39:39;15.00;99.90
14357;DHT22;7262;48.764;9.166;2024-02-21T13:42:06;15.10;99.90
14357;DHT22;7262;48.764;9.166;2024-02-21T13:44:32;15.20;99.90
14357;DHT22;7262;48.764;9.166;2024-02-21T13:47:00;15.10;99.90
14357;DHT22;7262;48.764;9.166;2024-02-21T13:49:27;15.20;99.90
14357;DHT22;7262;48.764;9.166;2024-02-21T13:51:55;15.20;99.90
14357;DHT22;7262;48.764;9.166;2024-02-21T13:54:24;15.10;99.90
14357;DHT22;7262;48.764;9.166;2024-02-21T13:56:51;14.70;99.90
14357;DHT22;7262;48.764;9.166;2024-02-21T13:59:18;14.50;99.90
14357;DHT22;7262;48.764;9.166;2024-02-21T14:01:45;14.30;99.90
14357;DHT22;7262;48.764;9.166;2024-02-21T14:04:12;14.30;99.90
14357;DHT22;7262;48.764;9.166;2024-02-21T14:06:39;14.30;99.90
14357;DHT22;7262;48.764;9.166;2024-02-21T14:09:08;14.40;99.90
14357;DHT22;7262;48.764;9.166;2024-02-21T14:11:40;14.30;99.90
14357;DHT22;7262;48.764;9.166;2024-02-21T14:14:07;14.30;99.90
14357;DHT22;7262;48.764;9.166;2024-02-21T14:16:34;14.10;99.90
14357;DHT22;7262;48.764;9.166;2024-02-21T14:19:01;14.20;99.90
14357;DHT22;7262;48.764;9.166;2024-02-21T14:21:28;14.20;99.90
14357;DHT22;7262;48.764;9.166;2024-02-21T14:23:55;14.20;99.90
14357;DHT22;7262;48.764;9.166;2024-02-21T14:26:23;14.20;99.90
14357;DHT22;7262;48.764;9.166;2024-02-21T14:28:51;14.10;99.90
14357;DHT22;7262;48.764;9.166;2024-02-21T14:31:19;14.20;99.90
14357;DHT22;7262;48.764;9.166;2024-02-21T14:33:46;14.10;99.90
14357;DHT22;7262;48.764;9.166;2024-02-21T14:36:13;14.30;99.90
14357;DHT22;7262;48.764;9.166;2024-02-21T14:43:53;14.40;99.90
14357;DHT22;7262;48.764;9.166;2024-02-21T14:46:21;14.40;99.90
14357;DHT22;7262;48.764;9.166;2024-02-21T14:48:48;14.30;99.90
14357;DHT22;7262;48.764;9.166;2024-02-21T14:51:15;14.30;99.90
14357;DHT22;7262;48.764;9.166;2024-02-21T14:53:41;14.20;99.90
14357;DHT22;7262;48.764;9.166;2024-02-21T14:56:12;14.10;99.90
14357;DHT22;7262;48.764;9.166;2024-02-21T14:58:39;14.10;99.90
14357;DHT22;7262;48.764;9.166;2024-02-21T15:01:08;14.00;99.90
14357;DHT22;7262;48.764;9.166;2024-02-21T15:03:35;14.00;99.90
14357;DHT22;7262;48.764;9.166;2024-02-21T15:06:02;13.90;99.90
14357;DHT22;7262;48.764;9.166;2024-02-21T15:08:29;13.80;99.90
14357;DHT22;7262;48.764;9.166;2024-02-21T15:10:56;13.90;99.90
14357;DHT22;7262;48.764;9.166;2024-02-21T15:13:23;13.80;99.90
14357;DHT22;7262;48.764;9.166;2024-02-21T15:15:51;13.80;99.90
14357;DHT22;7262;48.764;9.166;2024-02-21T15:18:19;13.70;99.90
14357;DHT22;7262;48.764;9.166;2024-02-21T15:20:46;13.70;99.90
14357;DHT22;7262;48.764;9.166;2024-02-21T15:23:13;13.60;99.90
14357;DHT22;7262;48.764;9.166;2024-02-21T15:25:40;13.60;99.90
14357;DHT22;7262;48.764;9.166;2024-02-21T15:28:08;13.60;99.90
14357;DHT22;7262;48.764;9.166;2024-02-21T15:30:35;13.50;99.90
14357;DHT22;7262;48.764;9.166;2024-02-21T15:33:04;13.50;99.90
14357;DHT22;7262;48.764;9.166;2024-02-21T15:35:35;13.60;99.90
14357;DHT22;7262;48.764;9.166;2024-02-21T16:08:30;12.90;99.90
14357;DHT22;7262;48.764;9.166;2024-02-21T16:10:58;13.00;99.90
14357;DHT22;7262;48.764;9.166;2024-02-21T16:13:25;12.90;99.90
14357;DHT22;7262;48.764;9.166;2024-02-21T16:15:53;12.90;99.90
14357;DHT22;7262;48.764;9.166;2024-02-21T16:18:20;12.90;99.90
14357;DHT22;7262;48.764;9.166;2024-02-21T17:18:42;12.10;99.90
14357;DHT22;7262;48.764;9.166;2024-02-21T17:21:11;12.00;99.90
14357;DHT22;7262;48.764;9.166;2024-02-21T17:23:37;12.00;99.90
14357;DHT22;7262;48.764;9.166;2024-02-21T17:26:05;11.90;99.90
14357;DHT22;7262;48.764;9.166;2024-02-21T17:28:31;12.00;99.90
14357;DHT22;7262;48.764;9.166;2024-02-21T17:30:58;11.80;99.90
14357;DHT22;7262;48.764;9.166;2024-02-21T17:33:25;11.80;99.90
14357;DHT22;7262;48.764;9.166;2024-02-21T17:35:54;11.80;99.90
14357;DHT22;7262;48.764;9.166;2024-02-21T17:38:21;11.90;99.90
14357;DHT22;7262;48.764;9.166;2024-02-21T17:40:49;11.60;99.90
14357;DHT22;7262;48.764;9.166;2024-02-21T17:43:16;11.60;99.90
14357;DHT22;7262;48.764;9.166;2024-02-21T17:45:44;11.60;99.90
14357;DHT22;7262;48.764;9.166;2024-02-21T17:48:11;11.60;99.90
14357;DHT22;7262;48.764;9.166;2024-02-21T17:50:38;11.60;99.90
14357;DHT22;7262;48.764;9.166;2024-02-21T17:53:06;11.60;99.90
14357;DHT22;7262;48.764;9.166;2024-02-21T17:55:34;11.50;99.90
14357;DHT22;7262;48.764;9.166;2024-02-21T17:58:01;11.50;99.90
14357;DHT22;7262;48.764;9.166;2024-02-21T18:00:27;11.50;99.90
14357;DHT22;7262;48.764;9.166;2024-02-21T18:02:56;11.50;99.90
14357;DHT22;7262;48.764;9.166;2024-02-21T18:05:23;11.50;99.90
14357;DHT22;7262;48.764;9.166;2024-02-21T18:07:50;11.40;99.90
14357;DHT22;7262;48.764;9.166;2024-02-21T18:10:19;11.40;99.90
14357;DHT22;7262;48.764;9.166;2024-02-21T18:12:47;11.50;99.90
14357;DHT22;7262;48.764;9.166;2024-02-21T18:15:13;11.40;99.90
14357;DHT22;7262;48.764;9.166;2024-02-21T18:17:40;11.50;99.90
14357;DHT22;7262;48.764;9.166;2024-02-21T18:20:08;11.50;99.90
14357;DHT22;7262;48.764;9.166;2024-02-21T18:22:35;11.50;99.90
14357;DHT22;7262;48.764;9.166;2024-02-21T18:25:02;11.40;99.90
14357;DHT22;7262;48.764;9.166;2024-02-21T18:27:30;11.40;99.90
14357;DHT22;7262;48.764;9.166;2024-02-21T18:29:57;11.40;99.90
14357;DHT22;7262;48.764;9.166;2024-02-21T18:32:24;11.50;99.90
14357;DHT22;7262;48.764;9.166;2024-02-21T18:34:51;11.40;99.90
14357;DHT22;7262;48.764;9.166;2024-02-21T18:37:21;11.40;99.90
14357;DHT22;7262;48.764;9.166;2024-02-21T18:39:49;11.40;99.90
14357;DHT22;7262;48.764;9.166;2024-02-21T18:42:15;11.40;99.90
14357;DHT22;7262;48.764;9.166;2024-02-21T18:44:44;11.50;99.90
14357;DHT22;7262;48.764;9.166;2024-02-21T18:47:11;11.40;99.90
14357;DHT22;7262;48.764;9.166;2024-02-21T18:49:38;11.30;99.90
14357;DHT22;7262;48.764;9.166;2024-02-21T18:52:09;11.40;99.90
14357;DHT22;7262;48.764;9.166;2024-02-21T18:54:38;11.50;99.90
14357;DHT22;7262;48.764;9.166;2024-02-21T18:57:05;11.50;99.90
14357;DHT22;7262;48.764;9.166;2024-02-21T18:59:33;11.60;99.90
14357;DHT22;7262;48.764;9.166;2024-02-21T19:02:05;11.70;99.90
14357;DHT22;7262;48.764;9.166;2024-02-21T19:04:33;11.80;99.90
14357;DHT22;7262;48.764;9.166;2024-02-21T19:07:00;12.00;99.90
14357;DHT22;7262;48.764;9.166;2024-02-21T19:09:27;11.90;99.90